Time;durP1;ratioP1;P1;durP2;ratioP2;P2;SDS_P1;SDS_P2;PMS_P1;PMS_P2;Temp;Humidity;BMP_temperature;BMP_pressure;BME280_temperature;BME280_humidity;BME280_pressure;Samples;Min_cycle;Max_cycle;Signal;HPM_P1;HPM_P2
2023/01/09 00:00:44;;;;;;;6.43;1.77;;;;;;;11.82;69.38;97250.47;5346334;26;20051;-86
2023/01/09 00:03:12;;;;;;;5.37;2.10;;;;;;;11.72;69.28;97236.41;5346345;26;20060;-86
2023/01/09 00:05:39;;;;;;;6.72;2.10;;;;;;;11.79;69.44;97239.44;5346777;26;20075;-87
2023/01/09 00:08:06;;;;;;;6.20;2.12;;;;;;;11.86;68.69;97231.28;5346583;26;20052;-86
2023/01/09 00:10:33;;;;;;;6.35;2.35;;;;;;;11.90;68.21;97237.06;5346049;26;20103;-86
2023/01/09 00:13:00;;;;;;;5.07;2.05;;;;;;;11.80;68.80;97238.56;5346721;26;20056;-87
2023/01/09 00:15:26;;;;;;;5.32;2.08;;;;;;;11.91;68.44;97249.09;5346567;26;20056;-86
2023/01/09 00:17:53;;;;;;;;;;;;;;;11.92;67.96;97242.19;5346592;26;20053;-86
2023/01/09 00:20:20;;;;;;;5.40;2.03;;;;;;;11.92;67.77;97242.19;5346321;26;20329;-86
2023/01/09 00:22:47;;;;;;;5.93;2.00;;;;;;;12.06;67.17;97249.91;5346314;26;20436;-85
2023/01/09 00:25:14;;;;;;;;;;;;;;;11.95;67.00;97247.97;5346983;26;20051;-87
2023/01/09 00:27:40;;;;;;;6.35;2.40;;;;;;;12.32;65.68;97251.69;5346518;26;20269;-86
2023/01/09 00:30:08;;;;;;;;;;;;;;;11.97;66.57;97242.72;5346144;26;20408;-86
2023/01/09 00:32:35;;;;;;;6.05;2.08;;;;;;;12.36;64.34;97229.09;5346490;26;20016;-86
2023/01/09 00:35:01;;;;;;;;;;;;;;;12.14;65.35;97233.00;5346956;26;20056;-87
2023/01/09 00:37:28;;;;;;;5.82;2.00;;;;;;;12.34;64.29;97218.84;5346310;26;19964;-86
2023/01/09 00:39:55;;;;;;;;;;;;;;;12.36;63.83;97224.75;5346485;26;20059;-86
2023/01/09 00:42:25;;;;;;;5.05;1.83;;;;;;;12.31;64.19;97216.41;5347022;26;19967;-86
2023/01/09 00:44:55;;;;;;;7.45;2.28;;;;;;;12.44;63.78;97213.88;5346486;26;20120;-86
2023/01/09 00:47:27;;;;;;;6.10;2.10;;;;;;;12.19;64.24;97200.84;5346794;26;20417;-87
2023/01/09 00:49:54;;;;;;;5.97;2.33;;;;;;;12.42;63.71;97200.22;5346572;26;20079;-86
2023/01/09 00:52:21;;;;;;;5.78;2.00;;;;;;;12.40;63.64;97197.75;5346188;26;20056;-86
2023/01/09 00:54:48;;;;;;;5.80;2.03;;;;;;;12.29;63.72;97201.94;5346512;26;20091;-86
2023/01/09 00:57:15;;;;;;;6.37;1.90;;;;;;;12.32;63.67;97194.78;5346267;26;20048;-86
2023/01/09 00:59:43;;;;;;;6.22;1.95;;;;;;;12.06;64.39;97201.63;5345986;26;20041;-86
2023/01/09 01:02:10;;;;;;;5.12;1.90;;;;;;;12.27;63.99;97198.63;5346585;26;20090;-87
2023/01/09 01:07:37;;;;;;;5.15;2.00;;;;;;;12.55;61.98;97192.53;5346327;26;20048;-86
2023/01/09 01:10:07;;;;;;;6.37;1.90;;;;;;;12.55;61.40;97208.88;5347049;26;20371;-86
2023/01/09 01:12:34;;;;;;;5.40;1.95;;;;;;;12.46;61.68;97186.19;5346898;26;20331;-86
2023/01/09 01:15:01;;;;;;;5.45;2.05;;;;;;;12.58;61.55;97194.91;5347322;26;20315;-86
2023/01/09 01:17:27;;;;;;;;;;;;;;;12.42;62.08;97203.63;5347826;26;20323;-86
2023/01/09 01:19:55;;;;;;;5.47;2.10;;;;;;;12.67;61.20;97194.31;5346745;26;19952;-87
2023/01/09 01:22:22;;;;;;;5.00;1.95;;;;;;;12.86;60.17;97193.94;5347045;26;20060;-87
2023/01/09 01:24:48;;;;;;;5.15;1.90;;;;;;;12.61;61.11;97192.12;5347281;26;20060;-87
2023/01/09 01:27:15;;;;;;;4.43;1.90;;;;;;;12.74;60.66;97188.63;5346881;26;20045;-87
2023/01/09 01:29:42;;;;;;;5.57;2.03;;;;;;;12.59;61.27;97188.81;5347126;26;20048;-85
2023/01/09 01:32:10;;;;;;;5.40;2.05;;;;;;;12.66;60.89;97188.31;5347286;26;20057;-87
2023/01/09 01:34:37;;;;;;;5.30;1.98;;;;;;;12.38;61.44;97191.84;5346772;26;20052;-87
2023/01/09 01:37:04;;;;;;;;;;;;;;;12.66;60.97;97190.09;5347790;26;20048;-87
2023/01/09 01:39:31;;;;;;;4.85;1.92;;;;;;;12.71;60.65;97185.41;5308794;26;19966;-87
2023/01/09 01:41:58;;;;;;;5.25;1.85;;;;;;;12.61;61.41;97179.19;5347006;26;20071;-87
2023/01/09 01:44:43;;;;;;;;;;;;;;;12.56;61.79;97174.31;5347400;26;20056;-87
2023/01/09 01:47:10;;;;;;;5.82;2.20;;;;;;;12.66;61.29;97167.63;5347007;26;19967;-87
2023/01/09 01:49:37;;;;;;;5.05;1.95;;;;;;;12.78;61.18;97163.41;5327436;26;20059;-86
2023/01/09 01:52:04;;;;;;;5.32;2.10;;;;;;;12.69;61.06;97174.34;5347357;26;20067;-86
2023/01/09 01:54:31;;;;;;;7.72;2.03;;;;;;;12.78;60.98;97160.81;5347253;26;20056;-86
2023/01/09 01:57:02;;;;;;;4.40;1.90;;;;;;;12.65;61.02;97159.94;5347341;26;20056;-86
2023/01/09 01:59:40;;;;;;;5.00;1.92;;;;;;;12.41;62.45;97152.81;5347579;26;20048;-87
2023/01/09 02:02:07;;;;;;;5.72;1.95;;;;;;;12.54;62.35;97154.62;5327732;26;20110;-86
2023/01/09 02:04:38;;;;;;;5.53;2.10;;;;;;;12.44;62.62;97136.28;5327670;26;20407;-87
2023/01/09 02:07:08;;;;;;;4.18;1.70;;;;;;;12.81;60.71;97149.41;5327883;26;20106;-87
2023/01/09 02:09:36;;;;;;;6.20;1.80;;;;;;;12.86;60.67;97145.56;5346911;26;20603;-86
2023/01/09 02:12:24;;;;;;;5.82;1.90;;;;;;;12.37;62.77;97141.03;5327199;26;20057;-87
2023/01/09 02:14:53;;;;;;;7.22;2.05;;;;;;;12.22;63.82;97138.56;5347308;26;20098;-86
2023/01/09 02:17:45;;;;;;;5.97;2.03;;;;;;;12.62;61.10;97127.31;5347704;26;20044;-87
2023/01/09 02:20:35;;;;;;;5.25;2.10;;;;;;;12.86;60.61;97124.88;5346907;26;20577;-86
2023/01/09 02:23:27;;;;;;;7.62;2.17;;;;;;;13.11;59.54;97118.06;5347556;26;20061;-86
2023/01/09 02:26:00;;;;;;;6.00;2.00;;;;;;;12.70;60.65;97112.13;5348211;26;20060;-87
2023/01/09 02:28:33;;;;;;;5.90;2.10;;;;;;;13.43;57.94;97111.53;5348198;26;20049;-87
2023/01/09 02:31:02;;;;;;;5.50;2.00;;;;;;;13.15;58.90;97096.19;5347215;26;20048;-86
2023/01/09 02:33:38;;;;;;;5.85;1.90;;;;;;;13.02;58.85;97099.63;5348466;26;20072;-86
2023/01/09 02:36:16;;;;;;;7.22;2.33;;;;;;;12.96;59.14;97089.66;5328949;26;20060;-86
2023/01/09 02:39:15;;;;;;;4.47;1.90;;;;;;;13.02;58.68;97094.44;5327204;26;20063;-87
2023/01/09 02:41:51;;;;;;;4.53;2.20;;;;;;;12.72;59.74;97080.97;5347849;26;20105;-87
2023/01/09 02:44:24;;;;;;;5.82;2.20;;;;;;;12.88;58.68;97081.59;5347294;26;20066;-86
2023/01/09 02:47:14;;;;;;;5.20;2.10;;;;;;;12.53;60.21;97089.09;5348530;26;20065;-87
2023/01/09 02:50:01;;;;;;;6.15;2.30;;;;;;;12.97;58.81;97078.41;5348552;26;20444;-87
2023/01/09 02:52:59;;;;;;;6.00;2.10;;;;;;;13.22;57.74;97075.00;5346116;26;20048;-87
2023/01/09 02:55:44;;;;;;;5.05;2.05;;;;;;;13.14;57.63;97072.06;5348569;26;20109;-87
2023/01/09 02:58:40;;;;;;;4.47;2.22;;;;;;;12.80;58.95;97060.56;5347555;26;20096;-87
2023/01/09 03:01:22;;;;;;;7.87;2.65;;;;;;;12.96;58.41;97068.13;5315841;26;20453;-87
2023/01/09 03:04:09;;;;;;;6.25;2.35;;;;;;;13.20;57.45;97063.91;5328680;26;20048;-87
2023/01/09 03:06:53;;;;;;;5.72;2.05;;;;;;;13.25;57.04;97063.59;5327802;26;20064;-87
2023/01/09 03:09:22;;;;;;;4.80;2.10;;;;;;;13.46;56.23;97062.09;5328190;26;20072;-87
2023/01/09 03:11:54;;;;;;;6.05;2.15;;;;;;;12.89;57.96;97066.91;5348001;26;20055;-87
2023/01/09 03:14:22;;;;;;;5.85;2.00;;;;;;;13.49;56.03;97066.22;5348333;26;20048;-87
2023/01/09 03:16:53;;;;;;;6.55;2.40;;;;;;;13.76;55.43;97063.47;5328409;26;20122;-87
2023/01/09 03:19:23;;;;;;;5.47;2.00;;;;;;;13.59;55.89;97075.00;5328905;26;20074;-87
2023/01/09 03:21:51;;;;;;;5.72;2.20;;;;;;;13.43;55.69;97070.09;5329336;26;20055;-87
2023/01/09 03:24:18;;;;;;;6.62;2.45;;;;;;;14.24;53.01;97077.25;5349311;26;20048;-87
2023/01/09 03:26:45;;;;;;;9.60;2.05;;;;;;;13.49;55.39;97074.00;5348674;26;20068;-87
2023/01/09 03:29:12;;;;;;;6.40;2.33;;;;;;;13.88;54.72;97071.19;5328989;26;20094;-87
2023/01/09 03:31:39;;;;;;;7.45;2.00;;;;;;;13.73;54.91;97072.28;5348400;26;20371;-87
2023/01/09 03:34:06;;;;;;;6.90;2.53;;;;;;;12.92;57.10;97077.03;5348860;26;20406;-87
2023/01/09 03:36:33;;;;;;;4.00;2.12;;;;;;;13.87;54.71;97072.13;5349074;26;20071;-88
2023/01/09 03:39:00;;;;;;;6.55;2.30;;;;;;;14.08;54.00;97071.53;5348483;26;20064;-87
2023/01/09 03:41:27;;;;;;;7.72;2.37;;;;;;;13.62;54.70;97067.03;5347844;26;20056;-87
2023/01/09 03:43:54;;;;;;;6.68;2.37;;;;;;;12.83;57.87;97062.12;5348099;26;20081;-87
2023/01/09 03:46:20;;;;;;;6.65;2.28;;;;;;;12.63;58.60;97061.69;5348451;26;20111;-87
2023/01/09 03:48:47;;;;;;;6.05;2.25;;;;;;;13.57;56.19;97064.75;5348785;26;20110;-87
2023/01/09 03:51:14;;;;;;;7.00;2.25;;;;;;;13.61;55.52;97055.03;5347992;26;20060;-87
2023/01/09 03:53:41;;;;;;;6.97;2.30;;;;;;;12.93;57.26;97063.16;5347883;26;20024;-87
2023/01/09 03:56:08;;;;;;;6.65;2.42;;;;;;;12.94;58.07;97055.28;5348445;26;20075;-87
2023/01/09 03:58:35;;;;;;;8.05;2.65;;;;;;;12.86;58.28;97057.56;5348087;26;20121;-87
2023/01/09 04:01:04;;;;;;;5.32;2.00;;;;;;;12.51;60.22;97048.75;5347112;26;20033;-87
2023/01/09 04:03:31;;;;;;;7.45;2.65;;;;;;;12.79;58.35;97045.16;5347557;26;20067;-87
2023/01/09 04:05:58;;;;;;;6.93;2.60;;;;;;;12.33;60.46;97046.44;5348083;26;20057;-87
2023/01/09 04:08:25;;;;;;;8.93;3.05;;;;;;;12.74;59.21;97045.44;5347288;26;20437;-87
2023/01/09 04:10:52;;;;;;;9.07;3.10;;;;;;;12.49;59.76;97035.91;5347377;26;20056;-87
2023/01/09 04:13:19;;;;;;;7.28;2.62;;;;;;;12.07;61.59;97047.31;5347614;26;20103;-87
2023/01/09 04:15:46;;;;;;;9.70;3.20;;;;;;;11.55;63.88;97050.59;5347117;26;20415;-87
2023/01/09 04:18:13;;;;;;;10.02;3.12;;;;;;;12.26;60.88;97052.94;5348020;26;20079;-87
2023/01/09 04:20:40;;;;;;;8.85;3.17;;;;;;;12.71;59.95;97043.06;5347793;26;20761;-87
2023/01/09 04:23:07;;;;;;;8.02;3.20;;;;;;;12.43;60.64;97034.53;5346755;26;20395;-87
2023/01/09 04:25:34;;;;;;;12.75;3.30;;;;;;;11.98;62.12;97048.72;5347222;26;20064;-87
2023/01/09 04:28:01;;;;;;;9.20;3.10;;;;;;;12.04;62.69;97040.59;5346895;26;20391;-86
2023/01/09 04:30:28;;;;;;;8.40;2.87;;;;;;;11.18;66.82;97031.38;5346828;26;20062;-87
2023/01/09 04:32:55;;;;;;;8.18;2.83;;;;;;;11.41;66.54;97038.53;5346834;26;20048;-87
2023/01/09 04:35:22;;;;;;;6.87;2.65;;;;;;;11.19;67.01;97038.19;5347096;26;20060;-86
2023/01/09 04:37:49;;;;;;;6.68;2.60;;;;;;;11.30;66.78;97035.78;5347482;26;20021;-87
2023/01/09 04:40:16;;;;;;;7.97;3.17;;;;;;;11.80;65.51;97031.78;5347139;26;20048;-86
2023/01/09 04:42:43;;;;;;;7.00;2.62;;;;;;;11.94;64.04;97021.44;5347119;26;20054;-86
2023/01/09 04:45:11;;;;;;;9.57;3.50;;;;;;;11.35;65.96;97033.72;5346784;26;20118;-87
2023/01/09 04:47:38;;;;;;;7.68;2.65;;;;;;;11.62;65.35;97022.63;5347572;26;20056;-87
2023/01/09 04:50:04;;;;;;;;;;;;;;;12.01;64.19;97021.84;5347458;26;20025;-87
2023/01/09 04:52:31;;;;;;;11.90;3.95;;;;;;;12.25;63.16;97020.25;5348092;26;19951;-87
2023/01/09 04:54:58;;;;;;;11.77;4.03;;;;;;;12.25;62.54;97020.25;5347841;26;20540;-87
2023/01/09 04:57:25;;;;;;;12.95;4.80;;;;;;;12.37;62.37;97024.62;5346797;26;20071;-87
2023/01/09 04:59:52;;;;;;;11.48;4.37;;;;;;;12.09;63.12;97035.09;5346999;26;20110;-86
2023/01/09 05:02:20;;;;;;;11.07;3.83;;;;;;;11.96;63.85;97036.84;5346854;26;20094;-87
2023/01/09 05:04:47;;;;;;;10.75;3.53;;;;;;;11.48;64.92;97031.22;5346104;26;20091;-87
2023/01/09 05:07:14;;;;;;;8.60;3.20;;;;;;;11.42;65.66;97034.19;5346529;26;20065;-87
2023/01/09 05:09:41;;;;;;;10.32;3.12;;;;;;;11.51;65.85;97037.03;5346256;26;20053;-86
2023/01/09 05:12:08;;;;;;;8.55;3.50;;;;;;;11.54;65.65;97044.59;5346460;26;20493;-87
2023/01/09 05:14:35;;;;;;;10.85;3.55;;;;;;;11.83;64.02;97040.19;5346504;26;20056;-86
2023/01/09 05:17:02;;;;;;;9.55;3.45;;;;;;;11.44;67.10;97043.50;5346307;26;20052;-87
2023/01/09 05:19:29;;;;;;;9.30;3.15;;;;;;;11.15;68.04;97044.44;5345815;26;20060;-87
2023/01/09 05:21:56;;;;;;;9.95;3.22;;;;;;;11.25;70.89;97037.81;5346018;26;20053;-86
2023/01/09 05:24:22;;;;;;;;;;;;;;;11.31;71.71;97040.03;5346330;26;20060;-87
2023/01/09 05:26:49;;;;;;;9.20;3.33;;;;;;;11.41;71.25;97045.44;5345692;26;19978;-87
2023/01/09 05:29:16;;;;;;;10.63;3.78;;;;;;;10.69;75.74;97042.88;5345769;26;20052;-87
2023/01/09 05:31:43;;;;;;;9.38;3.22;;;;;;;10.58;76.91;97031.53;5345293;26;20060;-87
2023/01/09 05:34:10;;;;;;;9.18;3.60;;;;;;;11.25;75.11;97032.62;5345992;26;20060;-87
2023/01/09 05:36:37;;;;;;;9.07;3.95;;;;;;;11.19;74.58;97038.19;5345988;26;20391;-87
2023/01/09 05:39:05;;;;;;;10.20;3.20;;;;;;;10.78;77.74;97044.09;5345118;26;20110;-87
2023/01/09 05:41:32;;;;;;;9.98;3.50;;;;;;;10.53;79.78;97036.16;5345576;26;20049;-87
2023/01/09 05:43:59;;;;;;;10.98;3.30;;;;;;;10.88;78.63;97047.78;5345951;26;20074;-88
2023/01/09 05:46:26;;;;;;;9.35;3.83;;;;;;;11.29;78.60;97044.47;5345401;26;20117;-88
2023/01/09 05:48:52;;;;;;;11.20;4.12;;;;;;;10.78;80.87;97035.53;5345642;26;20400;-88
2023/01/09 05:51:19;;;;;;;11.45;4.05;;;;;;;10.36;84.75;97031.97;5325859;26;20107;-88
2023/01/09 05:53:46;;;;;;;9.07;3.17;;;;;;;10.56;85.03;97038.53;5345648;26;20085;-87
2023/01/09 05:56:13;;;;;;;9.57;3.67;;;;;;;10.87;84.65;97033.22;5346912;26;20419;-88
2023/01/09 05:58:40;;;;;;;10.23;3.75;;;;;;;10.52;85.74;97043.03;5346816;26;20410;-88
2023/01/09 06:01:07;;;;;;;8.43;3.17;;;;;;;10.50;86.23;97039.72;5346037;26;20101;-88
2023/01/09 06:03:34;;;;;;;9.50;3.62;;;;;;;10.79;86.31;97040.59;5346925;26;20060;-88
2023/01/09 06:06:01;;;;;;;;;;;;;;;10.38;88.32;97025.78;5347196;26;20056;-87
2023/01/09 06:08:28;;;;;;;10.05;3.65;;;;;;;9.89;91.55;97025.19;5346437;26;20301;-87
2023/01/09 06:10:54;;;;;;;;;;;;;;;10.51;89.58;97031.06;5346868;26;20044;-88
2023/01/09 06:13:21;;;;;;;9.57;3.83;;;;;;;10.33;90.58;97032.97;5327114;26;19972;-87
2023/01/09 06:15:48;;;;;;;13.05;4.30;;;;;;;10.07;92.12;97029.25;5346485;26;20121;-87
2023/01/09 06:18:15;;;;;;;13.82;4.78;;;;;;;10.28;92.18;97018.69;5346777;26;20108;-87
2023/01/09 06:20:45;;;;;;;9.93;4.10;;;;;;;10.47;91.01;97016.69;5346156;26;20040;-87
2023/01/09 06:23:12;;;;;;;11.32;4.18;;;;;;;10.27;92.15;97025.59;5346800;26;20102;-87
2023/01/09 06:25:39;;;;;;;13.77;6.25;;;;;;;10.35;91.88;97010.50;5346755;26;20112;-88
2023/01/09 06:28:06;;;;;;;13.30;5.40;;;;;;;10.58;91.04;97013.50;5346387;26;20399;-87
2023/01/09 06:30:34;;;;;;;13.82;4.87;;;;;;;10.56;91.26;97023.06;5346370;26;20062;-87
2023/01/09 06:33:00;;;;;;;13.00;4.62;;;;;;;10.76;90.59;97022.72;5346782;26;20395;-87
2023/01/09 06:35:27;;;;;;;11.07;4.18;;;;;;;10.37;93.30;97018.97;5346370;26;20052;-87
2023/01/09 06:37:56;;;;;;;14.73;5.93;;;;;;;10.83;90.49;97016.25;5346756;26;20063;-87
2023/01/09 06:40:23;;;;;;;13.70;6.28;;;;;;;11.02;89.91;97010.81;5346234;26;20040;-87
2023/01/09 06:42:49;;;;;;;14.60;6.45;;;;;;;11.69;85.84;97013.53;5346380;26;20122;-87
2023/01/09 06:45:16;;;;;;;15.40;6.72;;;;;;;11.35;87.87;97007.09;5347328;26;20384;-87
2023/01/09 06:47:43;;;;;;;12.75;5.57;;;;;;;11.85;85.14;97007.34;5347571;26;20048;-84
2023/01/09 06:50:11;;;;;;;13.90;6.05;;;;;;;11.02;88.82;97009.06;5345946;26;20045;-84
2023/01/09 06:52:38;;;;;;;13.40;5.55;;;;;;;10.94;91.06;97016.44;5347311;26;20057;-86
2023/01/09 06:55:06;;;;;;;14.10;4.50;;;;;;;11.67;87.16;97005.87;5354772;26;20110;-87
2023/01/09 06:57:33;;;;;;;11.85;4.50;;;;;;;10.38;94.45;97009.50;5352120;26;20051;-87
2023/01/09 07:00:01;;;;;;;14.82;5.82;;;;;;;10.89;93.53;97004.75;5347961;26;20727;-86
2023/01/09 07:02:27;;;;;;;13.18;5.32;;;;;;;10.55;94.38;97011.94;5356466;26;20024;-86
2023/01/09 07:04:55;;;;;;;16.95;5.97;;;;;;;10.62;96.88;97007.22;5352482;26;20040;-85
2023/01/09 07:07:22;;;;;;;13.18;5.57;;;;;;;10.61;96.36;96993.50;5362483;26;20031;-85
2023/01/09 07:15:16;;;;;;;14.02;6.07;;;;;;;11.31;92.19;97016.78;5329440;26;20091;-85
2023/01/09 07:17:43;;;;;;;15.60;6.47;;;;;;;11.10;93.42;97012.94;5341515;26;20020;-87
2023/01/09 07:20:10;;;;;;;13.82;6.10;;;;;;;10.82;94.29;96999.13;5350620;26;20049;-86
2023/01/09 07:22:37;;;;;;;17.12;6.90;;;;;;;11.43;91.11;97013.44;5347852;26;20071;-87
2023/01/09 07:25:04;;;;;;;26.70;10.55;;;;;;;12.22;86.51;97017.84;5349778;26;20028;-87
2023/01/09 07:27:31;;;;;;;22.17;9.85;;;;;;;11.23;91.13;97013.84;5332946;26;20073;-87
2023/01/09 07:29:58;;;;;;;19.00;7.60;;;;;;;11.94;87.32;97025.75;5352058;26;20098;-87
2023/01/09 07:32:25;;;;;;;21.48;9.13;;;;;;;11.52;89.29;97019.78;5348512;26;20060;-87
2023/01/09 07:34:52;;;;;;;17.87;7.80;;;;;;;12.04;87.64;97026.84;5352324;26;20060;-88
2023/01/09 07:37:19;;;;;;;18.12;6.50;;;;;;;12.18;85.73;97013.81;5349587;26;20414;-87
2023/01/09 07:39:46;;;;;;;15.43;6.45;;;;;;;11.87;88.60;97017.56;5353325;26;20036;-88
2023/01/09 07:42:13;;;;;;;16.60;6.72;;;;;;;12.00;86.50;97008.09;5356081;26;20067;-88
2023/01/09 07:44:40;;;;;;;16.08;7.28;;;;;;;12.23;85.34;97004.03;5352999;26;20064;-88
2023/01/09 07:47:07;;;;;;;16.87;7.62;;;;;;;12.37;84.71;97006.50;5352014;26;20063;-87
2023/01/09 07:49:34;;;;;;;16.50;7.80;;;;;;;12.55;84.14;97006.22;5350216;26;20048;-86
2023/01/09 07:52:01;;;;;;;20.35;9.77;;;;;;;11.66;89.41;97005.97;5346427;26;20071;-87
2023/01/09 07:54:28;;;;;;;20.65;9.00;;;;;;;11.77;88.10;97008.72;5346664;26;20410;-86
2023/01/09 07:56:55;;;;;;;;;;;;;;;11.78;88.63;97000.84;5348172;26;20063;-89
2023/01/09 07:59:22;;;;;;;13.02;5.40;;;;;;;11.68;89.74;96996.38;5348293;26;19960;-88
2023/01/09 08:01:49;;;;;;;13.02;5.43;;;;;;;11.89;88.00;96992.44;5352233;26;20032;-87
2023/01/09 08:04:16;;;;;;;12.77;5.43;;;;;;;11.63;89.93;96985.53;5349735;26;20060;-86
2023/01/09 08:06:42;;;;;;;12.48;5.62;;;;;;;11.82;89.60;96991.19;5342239;26;165271;-86
2023/01/09 08:09:09;;;;;;;;;;;;;;;11.65;89.69;96997.41;5346851;26;20406;-88
2023/01/09 08:11:42;;;;;;;16.70;6.87;;;;;;;11.47;91.01;97003.72;5351766;26;20013;-85
2023/01/09 08:14:09;;;;;;;14.77;6.30;;;;;;;10.74;97.34;96998.78;5350051;26;20138;-85
2023/01/09 08:16:36;;;;;;;14.20;5.95;;;;;;;11.42;92.59;96995.44;5346718;26;20098;-88
2023/01/09 08:19:03;;;;;;;12.80;5.55;;;;;;;11.04;94.76;96998.63;5348639;26;20516;-88
2023/01/09 08:21:30;;;;;;;16.60;6.47;;;;;;;11.23;94.02;96991.44;5351373;26;20117;-89
2023/01/09 08:23:56;;;;;;;14.82;6.25;;;;;;;10.78;97.92;96992.50;5349077;26;20060;-84
2023/01/09 08:26:23;;;;;;;;;;;;;;;11.02;96.82;96990.16;5353015;26;20031;-85
2023/01/09 08:28:50;;;;;;;15.18;6.45;;;;;;;10.91;96.65;96990.81;5315588;26;19980;-86
2023/01/09 08:31:17;;;;;;;17.73;6.68;;;;;;;10.88;96.17;97003.09;5348840;26;20057;-88
2023/01/09 08:33:44;;;;;;;15.63;6.40;;;;;;;11.17;94.07;96996.97;5346255;26;20056;-87
2023/01/09 08:36:11;;;;;;;;;;;;;;;11.14;94.59;96993.75;5346750;26;20089;-88
2023/01/09 08:38:38;;;;;;;15.32;5.62;;;;;;;10.93;95.58;97003.63;5346370;26;20001;-86
2023/01/09 08:47:04;;;;;;;13.90;5.82;;;;;;;10.85;95.87;97000.72;5345455;26;20079;-87
2023/01/09 08:49:22;;;;;;;21.65;9.38;;;;;;;11.06;96.57;97006.28;5329072;26;20053;-87
2023/01/09 08:51:49;;;;;;;17.75;8.43;;;;;;;10.58;99.06;96993.69;5346815;26;20064;-86
2023/01/09 08:54:16;;;;;;;21.00;9.27;;;;;;;10.77;97.00;97000.31;5347826;26;20055;-88
2023/01/09 08:56:43;;;;;;;16.12;7.57;;;;;;;11.25;94.23;97007.66;5348319;26;20071;-89
2023/01/09 08:59:10;;;;;;;13.38;6.55;;;;;;;11.68;91.16;97006.72;5350156;26;20059;-88
2023/01/09 09:01:37;;;;;;;13.30;6.00;;;;;;;11.76;90.78;97009.62;5349929;26;20028;-87
2023/01/09 09:04:04;;;;;;;15.13;6.15;;;;;;;11.76;90.72;97005.31;5347017;26;20055;-86
2023/01/09 09:06:32;;;;;;;19.05;8.00;;;;;;;12.26;88.26;97011.56;5330896;26;20056;-87
2023/01/09 09:09:02;;;;;;;16.92;7.70;;;;;;;11.71;90.41;97009.12;5349391;26;20101;-87
2023/01/09 09:11:29;;;;;;;19.65;9.15;;;;;;;12.72;84.46;97004.13;5347493;26;20056;-87
2023/01/09 09:13:56;;;;;;;20.37;9.23;;;;;;;12.52;85.33;97009.00;5348151;26;20031;-86
2023/01/09 09:16:26;;;;;;;23.10;10.43;;;;;;;12.92;83.09;97010.56;5352526;26;20048;-85
2023/01/09 09:18:53;;;;;;;17.00;7.90;;;;;;;12.78;83.79;97004.66;5349654;26;20072;-86
2023/01/09 09:21:26;;;;;;;16.62;7.22;;;;;;;12.83;83.08;97000.00;5348383;26;20110;-87
2023/01/09 09:23:56;;;;;;;15.93;6.97;;;;;;;13.48;80.06;97007.56;5348898;26;20060;-87
2023/01/09 09:26:23;;;;;;;15.07;6.40;;;;;;;13.38;79.06;97007.38;5350929;26;20052;-85
2023/01/09 09:28:50;;;;;;;14.52;5.57;;;;;;;13.57;77.40;96991.37;5347484;26;20059;-88
2023/01/09 09:31:17;;;;;;;12.80;5.85;;;;;;;12.83;81.56;96981.88;5347244;26;20060;-86
2023/01/09 09:33:44;;;;;;;16.80;7.82;;;;;;;12.32;82.74;96980.13;5349520;26;20049;-86
2023/01/09 09:36:11;;;;;;;18.33;8.88;;;;;;;13.31;79.85;96975.09;5330393;26;20052;-86
2023/01/09 09:38:38;;;;;;;15.07;6.22;;;;;;;12.56;83.21;96974.25;5349049;26;20113;-88
2023/01/09 09:47:12;;;;;;;17.00;7.60;;;;;;;13.32;80.04;96974.97;5330290;26;20116;-88
2023/01/09 09:49:51;;;;;;;15.05;7.10;;;;;;;12.81;81.62;96968.22;5346564;26;20049;-85
2023/01/09 09:52:30;;;;;;;13.90;7.12;;;;;;;14.82;72.67;96973.47;5346575;26;20115;-85
2023/01/09 09:55:00;;;;;;;15.18;7.25;;;;;;;15.32;69.15;96970.38;5347674;26;20060;-83
2023/01/09 10:12:27;;;;;;;18.35;8.77;;;;;;;13.46;74.75;96948.06;5303896;26;20073;-86
2023/01/09 10:14:56;;;;;;;23.55;9.95;;;;;;;14.26;71.96;96952.63;5322354;26;20037;-87
2023/01/09 10:23:10;;;;;;;47.62;24.75;;;;;;;14.19;71.44;96937.50;5279519;26;20138;-86
2023/01/09 10:29:06;;;;;;;28.73;14.90;;;;;;;12.27;80.87;96934.81;5345514;26;20064;-85
2023/01/09 10:32:17;;;;;;;18.70;8.98;;;;;;;13.02;78.67;96920.94;5229710;27;20106;-86
2023/01/09 10:35:09;;;;;;;34.83;16.77;;;;;;;12.42;82.05;96913.91;5228124;27;20068;-86
2023/01/09 10:43:53;;;;;;;25.98;11.75;;;;;;;11.99;84.34;96909.97;5205083;27;20046;-85
2023/01/09 10:49:16;;;;;;;20.45;9.75;;;;;;;11.99;85.28;96894.44;5329151;26;20386;31
2023/01/09 10:51:50;;;;;;;19.67;10.40;;;;;;;11.80;85.97;96894.81;5332616;26;20036;-86
2023/01/09 11:00:22;;;;;;;16.85;8.20;;;;;;;13.21;78.04;96892.03;5266758;27;20034;-87
2023/01/09 11:02:51;;;;;;;15.95;8.25;;;;;;;11.93;83.45;96877.59;5302916;26;20043;-86
2023/01/09 11:26:23;;;;;;;21.65;10.63;;;;;;;11.58;87.04;96849.69;5315865;26;20053;-87
2023/01/09 11:37:25;;;;;;;21.58;9.38;;;;;;;11.37;90.54;96838.19;5353502;26;19950;-86
2023/01/09 11:45:02;;;;;;;15.75;7.87;;;;;;;10.49;96.77;96836.91;5357097;26;20072;-87
2023/01/09 11:53:18;;;;;;;18.95;10.05;;;;;;;10.04;99.45;96831.00;5309775;26;21585;-85
2023/01/09 11:55:46;;;;;;;30.58;16.45;;;;;;;10.25;97.74;96817.78;5334882;26;20028;-85
2023/01/09 11:58:19;;;;;;;23.12;10.18;;;;;;;10.60;94.87;96826.75;5354111;26;20056;-84
2023/01/09 12:04:27;;;;;;;18.77;8.15;;;;;;;11.06;91.28;96830.75;5337133;27;20061;-86
2023/01/09 12:07:15;;;;;;;17.00;8.38;;;;;;;10.95;90.65;96816.81;5333290;27;20032;-87
2023/01/09 12:09:45;;;;;;;18.62;8.52;;;;;;;10.11;95.45;96811.69;5311342;26;20064;-86
2023/01/09 12:12:21;;;;;;;16.45;7.97;;;;;;;10.38;94.51;96821.25;5336276;27;20021;-87
2023/01/09 12:15:20;;;;;;;16.15;7.45;;;;;;;10.89;91.85;96819.78;5339605;26;20068;-87
2023/01/09 12:18:24;;;;;;;17.45;8.25;;;;;;;10.67;90.63;96817.72;5341708;26;20075;-88
2023/01/09 12:21:16;;;;;;;17.90;8.07;;;;;;;10.11;94.14;96818.59;5340011;26;20071;-87
2023/01/09 12:24:10;;;;;;;26.98;12.23;;;;;;;10.82;90.96;96820.25;5340610;26;20063;-86
2023/01/09 12:26:57;;;;;;;18.12;8.80;;;;;;;10.34;92.49;96820.63;5343831;26;20054;-87
2023/01/09 12:41:43;;;;;;;14.98;6.78;;;;;;;10.59;91.25;96825.09;5337614;26;20040;-85
2023/01/09 12:44:24;;;;;;;14.40;6.60;;;;;;;9.84;93.42;96823.63;5348764;26;20032;-86
2023/01/09 12:47:16;;;;;;;14.50;6.95;;;;;;;9.94;93.45;96831.66;5359163;26;20043;-86
2023/01/09 12:50:24;;;;;;;17.10;7.28;;;;;;;9.34;96.90;96832.53;5319088;26;20088;-85
2023/01/09 12:53:16;;;;;;;16.77;7.40;;;;;;;8.95;99.57;96823.59;5345859;26;20074;-85
2023/01/09 12:56:07;;;;;;;28.87;9.00;;;;;;;8.65;100.00;96817.56;5346004;26;20071;-84
2023/01/09 12:58:58;;;;;;;17.73;8.05;;;;;;;8.89;100.00;96826.50;5347905;26;20079;-82
2023/01/09 13:01:31;;;;;;;16.95;7.78;;;;;;;8.14;100.00;96816.84;5346019;26;20040;-82
2023/01/09 13:04:26;;;;;;;17.65;7.85;;;;;;;7.83;100.00;96826.12;5347863;26;20057;-82
2023/01/09 13:06:58;;;;;;;17.45;7.43;;;;;;;6.96;100.00;96816.78;5348356;26;20067;-85
2023/01/09 13:09:42;;;;;;;17.27;7.97;;;;;;;7.25;100.00;96813.66;5351399;26;20020;-83
2023/01/09 13:12:20;;;;;;;21.48;8.82;;;;;;;7.73;100.00;96821.53;5363310;26;20066;-85
2023/01/09 13:15:04;;;;;;;19.50;7.78;;;;;;;7.83;100.00;96821.00;5338059;26;20071;-85
2023/01/09 13:18:11;;;;;;;20.98;8.63;;;;;;;7.28;100.00;96822.09;5328785;26;20068;-85
2023/01/09 13:20:55;;;;;;;18.75;8.82;;;;;;;7.31;100.00;96819.38;5328582;26;20556;-87
2023/01/09 13:23:33;;;;;;;21.17;9.55;;;;;;;8.28;100.00;96826.38;5354121;26;20626;-93
2023/01/09 13:26:04;;;;;;;17.12;8.30;;;;;;;8.59;100.00;96829.00;5332027;26;20036;-92
2023/01/09 13:28:45;;;;;;;20.80;9.73;;;;;;;7.70;100.00;96821.69;5334250;26;20061;-88
2023/01/09 13:31:22;;;;;;;19.73;10.23;;;;;;;7.72;100.00;96825.00;5330105;26;20048;-91
2023/01/09 13:33:53;;;;;;;18.85;8.90;;;;;;;8.06;100.00;96826.66;5349888;26;20040;-90
2023/01/09 13:36:46;;;;;;;19.35;10.32;;;;;;;9.40;100.00;96845.09;5331150;26;20122;-83
2023/01/09 13:39:26;;;;;;;18.77;9.85;;;;;;;9.05;100.00;96853.97;5348226;26;20057;-84
2023/01/09 13:44:47;;;;;;;17.67;8.20;;;;;;;8.59;100.00;96833.31;5347554;26;20095;-82
2023/01/09 13:47:26;;;;;;;17.75;9.77;;;;;;;8.76;100.00;96843.53;5348102;26;20133;-82